createdAt,value
2022-11-07T00:00:10.787Z,0
2022-11-07T00:01:10.787Z,13600
2022-11-07T00:02:10.568Z,13600
2022-11-07T00:03:10.733Z,13600
2022-11-07T00:04:10.210Z,0
2022-11-07T00:05:10.739Z,13600
2022-11-07T00:06:10.250Z,0
2022-11-07T00:07:10.922Z,0
2022-11-07T00:08:10.617Z,13600
2022-11-07T00:09:10.246Z,0
2022-11-07T00:10:11.083Z,13600
2022-11-07T00:11:10.914Z,0
2022-11-07T00:12:11.064Z,13600
2022-11-07T00:13:09.986Z,13600
2022-11-07T00:14:10.210Z,13600
2022-11-07T00:15:10.295Z,13600
2022-11-07T00:16:10.553Z,13600
2022-11-07T00:17:10.454Z,13600
2022-11-07T00:18:10.727Z,13600
2022-11-07T00:19:10.677Z,0
2022-11-07T00:20:10.885Z,13600
2022-11-07T00:21:10.537Z,0
2022-11-07T00:22:10.469Z,13600
2022-11-07T00:23:10.305Z,0
2022-11-07T00:25:10.670Z,0
2022-11-07T00:26:10.858Z,0
2022-11-07T00:27:10.481Z,13600
2022-11-07T00:28:10.528Z,13600
2022-11-07T00:29:10.204Z,13600
2022-11-07T00:30:10.139Z,13600
2022-11-07T00:31:10.418Z,13600
2022-11-07T00:32:10.248Z,13600
2022-11-07T00:33:09.971Z,13600
2022-11-07T00:34:10.254Z,13600
2022-11-07T00:35:11.400Z,0
2022-11-07T00:36:10.049Z,13600
2022-11-07T00:37:10.931Z,13600
2022-11-07T00:38:10.572Z,13600
2022-11-07T00:39:09.979Z,13600
2022-11-07T00:40:10.709Z,13600
2022-11-07T00:41:10.201Z,13600
2022-11-07T00:42:10.086Z,13600
2022-11-07T00:43:10.675Z,13600
2022-11-07T00:44:10.738Z,13600
2022-11-07T00:45:10.683Z,13600
2022-11-07T00:46:10.489Z,13600
2022-11-07T00:47:09.994Z,13600
2022-11-07T00:48:10.609Z,0
2022-11-07T00:49:09.978Z,13600
2022-11-07T00:50:10.766Z,13600
2022-11-07T00:51:09.937Z,13600
2022-11-07T00:52:10.451Z,13600
2022-11-07T00:53:09.917Z,13600
2022-11-07T00:54:10.183Z,13600
2022-11-07T00:55:10.758Z,13600
2022-11-07T00:56:10.632Z,13600
2022-11-07T00:57:10.420Z,0
2022-11-07T00:58:13.585Z,13600
2022-11-07T00:59:10.010Z,13600
2022-11-07T01:00:11.709Z,13600
2022-11-07T01:01:11.698Z,13600
2022-11-07T01:02:11.062Z,13600
2022-11-07T01:03:10.525Z,13600
2022-11-07T01:04:11.043Z,13600
2022-11-07T01:05:10.880Z,13600
2022-11-07T01:06:10.657Z,13600
2022-11-07T01:07:10.359Z,13600
2022-11-07T01:08:09.965Z,13600
2022-11-07T01:09:10.235Z,13600
2022-11-07T01:10:09.944Z,13600
2022-11-07T01:11:10.489Z,13600
2022-11-07T01:12:10.137Z,13600
2022-11-07T01:13:10.682Z,13600
2022-11-07T01:14:09.968Z,13600
2022-11-07T01:15:10.839Z,13600
2022-11-07T01:16:10.138Z,13600
2022-11-07T01:17:10.076Z,0
2022-11-07T01:18:10.597Z,13600
2022-11-07T01:19:10.245Z,13600
2022-11-07T01:20:10.801Z,13600
2022-11-07T01:21:16.091Z,13600
2022-11-07T01:22:09.995Z,13600
2022-11-07T01:23:10.375Z,13600
2022-11-07T01:24:10.471Z,13600
2022-11-07T01:25:09.968Z,13600
2022-11-07T01:26:10.559Z,13600
2022-11-07T01:27:10.205Z,13600
2022-11-07T01:28:10.705Z,13600
2022-11-07T01:29:10.116Z,0
2022-11-07T01:30:11.036Z,13600
2022-11-07T01:31:10.662Z,0
2022-11-07T01:32:10.359Z,0
2022-11-07T01:33:10.900Z,0
2022-11-07T01:34:09.923Z,13600
2022-11-07T01:35:10.281Z,0
2022-11-07T01:36:10.825Z,0
2022-11-07T01:37:10.217Z,0
2022-11-07T01:38:10.653Z,13600
2022-11-07T01:39:09.844Z,13600
2022-11-07T01:40:10.785Z,13600
2022-11-07T01:41:10.885Z,0
2022-11-07T01:42:10.667Z,0
2022-11-07T01:43:10.102Z,13600
2022-11-07T01:44:10.671Z,0
2022-11-07T01:45:10.356Z,0
2022-11-07T01:46:09.984Z,13600
2022-11-07T01:47:10.297Z,0
2022-11-07T01:48:10.713Z,0
2022-11-07T01:49:09.890Z,0
2022-11-07T01:50:10.848Z,0
2022-11-07T01:51:10.524Z,0
2022-11-07T01:52:10.211Z,0
2022-11-07T01:53:10.651Z,0
2022-11-07T01:54:10.694Z,13600
2022-11-07T01:55:10.354Z,13600
2022-11-07T01:56:10.043Z,0
2022-11-07T01:57:10.397Z,0
2022-11-07T01:58:10.642Z,0
2022-11-07T01:59:10.188Z,0
2022-11-07T02:00:10.519Z,0
2022-11-07T02:01:10.635Z,13600
2022-11-07T02:02:10.950Z,0
2022-11-07T02:03:10.671Z,13600
2022-11-07T02:04:10.334Z,13600
2022-11-07T02:05:10.419Z,0
2022-11-07T02:06:10.575Z,13600
2022-11-07T02:07:10.029Z,0
2022-11-07T02:08:10.814Z,0
2022-11-07T02:09:10.396Z,0
2022-11-07T02:10:10.219Z,0
2022-11-07T02:11:10.715Z,0
2022-11-07T02:12:10.242Z,0
2022-11-07T02:13:09.978Z,0
2022-11-07T02:14:10.479Z,13600
2022-11-07T02:15:10.540Z,0
2022-11-07T02:16:10.403Z,13600
2022-11-07T02:17:10.255Z,13600
2022-11-07T02:18:11.039Z,0
2022-11-07T02:19:10.564Z,0
2022-11-07T02:20:10.297Z,0
2022-11-07T02:21:10.719Z,0
2022-11-07T02:22:10.175Z,0
2022-11-07T02:23:10.676Z,0
2022-11-07T02:24:10.481Z,0
2022-11-07T02:25:10.068Z,0
2022-11-07T02:26:11.018Z,13600
2022-11-07T02:27:10.513Z,13600
2022-11-07T02:28:10.281Z,0
2022-11-07T02:29:10.730Z,0
2022-11-07T02:30:10.689Z,13600
2022-11-07T02:31:10.584Z,0
2022-11-07T02:32:10.300Z,0
2022-11-07T02:33:10.778Z,0
2022-11-07T02:34:10.040Z,0
2022-11-07T02:35:10.775Z,0
2022-11-07T02:36:10.502Z,0
2022-11-07T02:37:10.380Z,0
2022-11-07T02:38:10.089Z,13600
2022-11-07T02:39:10.779Z,0
2022-11-07T02:40:10.646Z,0
2022-11-07T02:41:10.314Z,0
2022-11-07T02:42:10.904Z,0
2022-11-07T02:43:10.610Z,0
2022-11-07T02:44:10.053Z,0
2022-11-07T02:45:10.533Z,0
2022-11-07T02:46:10.646Z,0
2022-11-07T02:47:10.303Z,0
2022-11-07T02:48:10.929Z,0
2022-11-07T02:49:10.642Z,0
2022-11-07T02:50:10.550Z,0
2022-11-07T02:51:10.291Z,0
2022-11-07T02:52:10.104Z,0
2022-11-07T02:53:10.357Z,0
2022-11-07T02:54:10.779Z,0
2022-11-07T02:55:10.364Z,0
2022-11-07T02:56:10.402Z,0
2022-11-07T02:57:10.170Z,0
2022-11-07T02:58:10.198Z,0
2022-11-07T02:59:10.665Z,0
2022-11-07T03:00:11.009Z,0
2022-11-07T03:01:10.313Z,0
2022-11-07T03:02:10.356Z,0
2022-11-07T03:03:10.021Z,0
2022-11-07T03:04:10.098Z,0
2022-11-07T03:05:10.693Z,0
2022-11-07T03:06:10.090Z,0
2022-11-07T03:07:10.631Z,0
2022-11-07T03:08:10.217Z,0
2022-11-07T03:09:10.694Z,0
2022-11-07T03:10:10.483Z,0
2022-11-07T03:11:10.053Z,0
2022-11-07T03:12:10.506Z,0
2022-11-07T03:13:09.987Z,0
2022-11-07T03:14:10.385Z,0
2022-11-07T03:15:11.123Z,0
2022-11-07T03:16:10.347Z,0
2022-11-07T03:17:10.879Z,0
2022-11-07T03:18:10.740Z,0
2022-11-07T03:19:10.273Z,0
2022-11-07T03:20:10.947Z,0
2022-11-07T03:21:10.337Z,0
2022-11-07T03:22:10.173Z,0
2022-11-07T03:23:10.758Z,0
2022-11-07T03:24:09.958Z,0
2022-11-07T03:25:10.379Z,0
2022-11-07T03:26:10.487Z,0
2022-11-07T03:27:11.047Z,0
2022-11-07T03:28:10.667Z,0
2022-11-07T03:29:10.523Z,0
2022-11-07T03:30:10.471Z,0
2022-11-07T03:31:10.318Z,0
2022-11-07T03:32:10.051Z,0
2022-11-07T03:33:10.543Z,0
2022-11-07T03:34:10.842Z,0.109
2022-11-07T03:35:10.509Z,0.449
2022-11-07T03:36:10.452Z,0.340
2022-11-07T03:37:10.428Z,0
2022-11-07T03:38:09.873Z,0
2022-11-07T03:39:10.293Z,0
2022-11-07T03:40:09.952Z,0.560
2022-11-07T03:41:10.345Z,0
2022-11-07T03:42:09.999Z,0
2022-11-07T03:43:10.515Z,0.219
2022-11-07T03:44:10.644Z,0.340
2022-11-07T03:45:10.474Z,0.449
2022-11-07T03:46:10.068Z,0.560
2022-11-07T03:47:10.552Z,0.219
2022-11-07T03:48:10.201Z,0.219
2022-11-07T03:49:10.650Z,0.219
2022-11-07T03:50:10.361Z,0.610
2022-11-07T03:51:10.153Z,0.409
2022-11-07T03:52:10.745Z,0.610
2022-11-07T03:53:10.017Z,0.239
2022-11-07T03:54:10.742Z,0.939
2022-11-07T03:55:10.183Z,0.490
2022-11-07T03:56:10.833Z,0.560
2022-11-07T03:57:10.691Z,0.449
2022-11-07T03:58:15.192Z,0.680
2022-11-07T03:59:10.701Z,0.560
2022-11-07T04:00:10.513Z,0.449
2022-11-07T04:01:10.848Z,0.449
2022-11-07T04:02:10.645Z,0.219
2022-11-07T04:03:10.796Z,0.680
2022-11-07T04:04:09.973Z,0.560
2022-11-07T04:05:11.053Z,0.219
2022-11-07T04:06:10.678Z,0.449
2022-11-07T04:07:10.130Z,0.449
2022-11-07T04:08:10.563Z,0.449
2022-11-07T04:09:10.169Z,0.449
2022-11-07T04:10:10.121Z,0.560
2022-11-07T04:11:10.677Z,0.560
2022-11-07T04:12:10.190Z,0.449
2022-11-07T04:13:10.861Z,0.340
2022-11-07T04:14:10.188Z,0.340
2022-11-07T04:15:10.977Z,0.899
2022-11-07T04:16:16.426Z,0.340
2022-11-07T04:17:10.182Z,0.449
2022-11-07T04:18:10.911Z,0.560
2022-11-07T04:19:10.765Z,0.560
2022-11-07T04:20:10.330Z,0.560
2022-11-07T04:21:11.174Z,0.340
2022-11-07T04:22:10.746Z,0.219
2022-11-07T04:23:10.084Z,0.790
2022-11-07T04:24:10.508Z,0.109
2022-11-07T04:25:10.209Z,0.449
2022-11-07T04:26:10.107Z,0.310
2022-11-07T04:27:10.646Z,0.239
2022-11-07T04:28:24.102Z,0.680
2022-11-07T04:29:10.915Z,0.219
2022-11-07T04:30:10.707Z,0.449
2022-11-07T04:31:10.028Z,0.560
2022-11-07T04:32:10.679Z,0.449
2022-11-07T04:33:09.937Z,0.449
2022-11-07T04:34:09.961Z,0.340
2022-11-07T04:35:10.156Z,0.219
2022-11-07T04:36:10.664Z,0.109
2022-11-07T04:37:09.968Z,0.560
2022-11-07T04:38:10.617Z,0.449
2022-11-07T04:39:10.358Z,0.219
2022-11-07T04:40:10.803Z,0.449
2022-11-07T04:41:10.288Z,0.109
2022-11-07T04:42:09.738Z,0.109
2022-11-07T04:43:10.106Z,0
2022-11-07T04:44:10.115Z,0.109
2022-11-07T04:45:11.079Z,0.109
2022-11-07T04:46:10.102Z,0
2022-11-07T04:47:10.400Z,0.219
2022-11-07T04:48:10.030Z,0
2022-11-07T04:49:10.234Z,0.109
2022-11-07T04:50:10.912Z,0
2022-11-07T04:51:10.348Z,0
2022-11-07T04:52:09.810Z,0
2022-11-07T04:53:10.135Z,0.109
2022-11-07T04:54:10.102Z,0
2022-11-07T04:55:10.344Z,0.219
2022-11-07T04:56:09.709Z,0
2022-11-07T04:57:10.100Z,0
2022-11-07T04:58:09.779Z,0
2022-11-07T04:59:10.043Z,0.109
2022-11-07T05:00:11.411Z,0.109
2022-11-07T05:01:10.559Z,0
2022-11-07T05:02:10.383Z,0.109
2022-11-07T05:03:10.398Z,0.109
2022-11-07T05:04:09.902Z,0.109
2022-11-07T05:05:10.580Z,0
2022-11-07T05:06:10.371Z,0.109
2022-11-07T05:07:09.962Z,0
2022-11-07T05:08:10.698Z,0.109
2022-11-07T05:09:10.119Z,0
2022-11-07T05:10:12.348Z,0
2022-11-07T05:11:11.135Z,0
2022-11-07T05:12:09.767Z,0.109
2022-11-07T05:13:10.508Z,0
2022-11-07T05:14:10.027Z,0.109
2022-11-07T05:15:10.779Z,0
2022-11-07T05:16:10.679Z,0.119
2022-11-07T05:17:10.396Z,0.340
2022-11-07T05:18:10.120Z,0.109
2022-11-07T05:19:10.790Z,0.219
2022-11-07T05:20:10.861Z,0.109
2022-11-07T05:21:10.819Z,0.219
2022-11-07T05:22:10.854Z,0.680
2022-11-07T05:23:10.913Z,0.219
2022-11-07T05:24:09.807Z,0.340
2022-11-07T05:25:10.838Z,0.449
2022-11-07T05:26:10.659Z,0.449
2022-11-07T05:27:10.430Z,0.449
2022-11-07T05:28:09.941Z,0.560
2022-11-07T05:29:10.633Z,0.109
2022-11-07T05:30:10.395Z,0.219
2022-11-07T05:31:10.470Z,0.340
2022-11-07T05:32:10.529Z,0.219
2022-11-07T05:33:10.263Z,0.449
2022-11-07T05:34:14.357Z,0.109
2022-11-07T05:35:10.238Z,0.219
2022-11-07T05:36:10.074Z,0.680
2022-11-07T05:37:10.680Z,0.340
2022-11-07T05:38:10.434Z,0.340
2022-11-07T05:39:10.034Z,0.219
2022-11-07T05:40:10.588Z,0.449
2022-11-07T05:41:10.676Z,0
2022-11-07T05:42:10.655Z,0.340
2022-11-07T05:43:10.386Z,0.340
2022-11-07T05:44:10.907Z,0
2022-11-07T05:45:10.709Z,0
2022-11-07T05:46:10.594Z,0
2022-11-07T05:47:10.638Z,0
2022-11-07T05:48:10.388Z,0
2022-11-07T05:49:09.897Z,0
2022-11-07T05:50:10.805Z,0
2022-11-07T05:51:10.397Z,0
2022-11-07T05:52:09.958Z,0
2022-11-07T05:53:10.503Z,0
2022-11-07T05:54:09.907Z,0
2022-11-07T05:55:10.259Z,0
2022-11-07T05:56:09.790Z,0
2022-11-07T05:57:10.160Z,0
2022-11-07T05:58:10.653Z,0
2022-11-07T05:59:10.624Z,0
2022-11-07T06:00:10.817Z,0
2022-11-07T06:01:10.158Z,0.050
2022-11-07T06:02:10.885Z,0.050
2022-11-07T06:03:10.869Z,0.109
2022-11-07T06:04:10.117Z,0.680
2022-11-07T06:05:11.042Z,0.680
2022-11-07T06:06:10.050Z,0.560
2022-11-07T06:07:10.386Z,0.899
2022-11-07T06:08:11.278Z,1.720
2022-11-07T06:09:10.406Z,2
2022-11-07T06:10:10.458Z,2.660
2022-11-07T06:11:10.549Z,3.549
2022-11-07T06:12:10.874Z,4.619
2022-11-07T06:13:09.632Z,5.739
2022-11-07T06:14:09.966Z,7.059
2022-11-07T06:15:10.781Z,8.460
2022-11-07T06:16:11.099Z,10.18
2022-11-07T06:17:10.184Z,12.15
2022-11-07T06:18:09.963Z,14.72
2022-11-07T06:19:10.546Z,17.29
2022-11-07T06:20:10.083Z,20.39
2022-11-07T06:21:10.888Z,24.29
2022-11-07T06:22:10.849Z,28
2022-11-07T06:23:10.926Z,32.29
2022-11-07T06:24:15.088Z,37.5
2022-11-07T06:25:10.508Z,43.40
2022-11-07T06:26:10.407Z,49.70
2022-11-07T06:27:09.956Z,55.5
2022-11-07T06:28:11.009Z,61.79
2022-11-07T06:29:09.798Z,68.5
2022-11-07T06:30:10.657Z,75.90
2022-11-07T06:31:10.673Z,82.90
2022-11-07T06:32:10.623Z,90.09
2022-11-07T06:33:10.795Z,97.90
2022-11-07T06:34:10.877Z,105
2022-11-07T06:35:15.710Z,117
2022-11-07T06:36:10.471Z,126.6
2022-11-07T06:37:10.087Z,135
2022-11-07T06:38:09.853Z,147
2022-11-07T06:39:10.805Z,162
2022-11-07T06:40:10.987Z,182
2022-11-07T06:41:10.612Z,195
2022-11-07T06:42:10.794Z,209
2022-11-07T06:43:10.582Z,226
2022-11-07T06:44:10.533Z,243
2022-11-07T06:45:10.845Z,259
2022-11-07T06:46:10.417Z,273
2022-11-07T06:47:10.492Z,287
2022-11-07T06:48:10.738Z,302
2022-11-07T06:49:10.922Z,320
2022-11-07T06:50:10.252Z,337
2022-11-07T06:51:10.138Z,351
2022-11-07T06:52:10.327Z,365
2022-11-07T06:53:10.779Z,379
2022-11-07T06:54:10.322Z,392.3
2022-11-07T06:55:10.484Z,398.7
2022-11-07T06:56:10.123Z,401.6
2022-11-07T06:57:10.796Z,415
2022-11-07T06:58:10.826Z,439
2022-11-07T06:59:10.817Z,459
2022-11-07T07:00:11.522Z,474
2022-11-07T07:01:09.806Z,482.1
2022-11-07T07:02:11.179Z,481.7
2022-11-07T07:03:10.599Z,487
2022-11-07T07:04:10.160Z,503
2022-11-07T07:05:10.882Z,520
2022-11-07T07:06:10.389Z,516.5
2022-11-07T07:07:10.171Z,508.8
2022-11-07T07:08:10.114Z,526
2022-11-07T07:09:11.000Z,549
2022-11-07T07:10:10.058Z,565
2022-11-07T07:11:10.392Z,578
2022-11-07T07:12:10.634Z,596
2022-11-07T07:13:32.388Z,620
2022-11-07T07:14:11.750Z,650
2022-11-07T07:15:11.136Z,690
2022-11-07T07:16:10.155Z,724
2022-11-07T07:17:11.168Z,740
2022-11-07T07:18:10.267Z,754
2022-11-07T07:19:10.967Z,765
2022-11-07T07:20:11.433Z,776
2022-11-07T07:21:10.848Z,810
2022-11-07T07:22:10.747Z,844
2022-11-07T07:23:11.155Z,810
2022-11-07T07:24:10.810Z,760
2022-11-07T07:25:10.553Z,720
2022-11-07T07:26:10.553Z,700
2022-11-07T07:27:10.545Z,900
2022-11-07T07:28:10.220Z,1000
2022-11-07T07:29:10.324Z,1026.
2022-11-07T07:30:10.681Z,1020
2022-11-07T07:31:10.996Z,1060
2022-11-07T07:32:10.258Z,1086.
2022-11-07T07:34:10.963Z,1100
2022-11-07T07:35:10.933Z,1260
2022-11-07T07:36:12.465Z,1260
2022-11-07T07:37:10.362Z,1200
2022-11-07T07:38:10.515Z,1360
2022-11-07T07:39:10.886Z,1364
2022-11-07T07:40:10.696Z,1398
2022-11-07T07:41:10.895Z,1394.
2022-11-07T07:42:10.976Z,1370
2022-11-07T07:43:10.115Z,1330
2022-11-07T07:44:10.667Z,1308
2022-11-07T07:45:11.116Z,1298.
2022-11-07T07:46:10.292Z,1260
2022-11-07T07:47:11.611Z,1210
2022-11-07T07:48:10.779Z,1300
2022-11-07T07:49:11.075Z,1360
2022-11-07T07:50:11.196Z,1310
2022-11-07T07:51:10.248Z,1400
2022-11-07T07:52:10.249Z,1600
2022-11-07T07:53:10.262Z,1708
2022-11-07T07:54:10.532Z,1000
2022-11-07T07:55:10.248Z,2000
2022-11-07T07:56:10.556Z,2200
2022-11-07T07:57:10.514Z,1900
2022-11-07T07:58:10.672Z,1870
2022-11-07T07:59:10.131Z,1900
2022-11-07T08:00:11.481Z,2000
2022-11-07T08:01:11.446Z,2000
2022-11-07T08:02:10.755Z,2000
2022-11-07T08:03:10.936Z,3000
2022-11-07T08:04:10.711Z,0
2022-11-07T08:05:11.136Z,0
2022-11-07T08:06:10.653Z,0
2022-11-07T08:07:10.541Z,0
2022-11-07T08:08:10.679Z,0
2022-11-07T08:09:10.424Z,3000
2022-11-07T08:10:39.810Z,0
2022-11-07T08:11:11.207Z,3000
2022-11-07T08:12:10.428Z,3300
2022-11-07T08:13:10.430Z,3200
2022-11-07T08:14:10.559Z,3100
2022-11-07T08:15:10.676Z,3027
2022-11-07T08:16:11.030Z,3030
2022-11-07T08:17:10.349Z,3100
2022-11-07T08:18:10.582Z,3300
2022-11-07T08:19:10.464Z,3000
2022-11-07T08:20:10.399Z,0
2022-11-07T08:21:10.625Z,3000
2022-11-07T08:22:10.765Z,3100
2022-11-07T08:23:16.027Z,3200
2022-11-07T08:24:10.756Z,3320
2022-11-07T08:25:11.127Z,3360
2022-11-07T08:26:10.116Z,3400
2022-11-07T08:27:10.908Z,3000
2022-11-07T08:28:11.015Z,4000
2022-11-07T08:29:10.069Z,4200
2022-11-07T08:30:15.129Z,4100
2022-11-07T08:31:10.399Z,4000
2022-11-07T08:32:10.582Z,5000
2022-11-07T08:33:10.342Z,0
2022-11-07T08:34:11.107Z,3600
2022-11-07T08:35:10.454Z,3440
2022-11-07T08:36:10.427Z,3500
2022-11-07T08:37:10.408Z,3700
2022-11-07T08:38:13.921Z,0
2022-11-07T08:39:10.021Z,0
2022-11-07T08:40:10.955Z,0
2022-11-07T08:41:10.691Z,0
2022-11-07T08:42:10.454Z,0
2022-11-07T08:43:09.909Z,5000
2022-11-07T08:44:10.189Z,0
2022-11-07T08:45:11.312Z,0
2022-11-07T08:46:10.318Z,5000
2022-11-07T08:47:10.014Z,6000
2022-11-07T08:48:11.014Z,0
2022-11-07T08:49:10.894Z,0
2022-11-07T08:50:11.133Z,10000
2022-11-07T08:51:12.594Z,10000
2022-11-07T08:52:10.672Z,10000
2022-11-07T08:53:10.607Z,10000
2022-11-07T08:54:09.838Z,0
2022-11-07T08:55:11.527Z,0
2022-11-07T08:56:15.267Z,10000
2022-11-07T08:57:10.015Z,0
2022-11-07T08:58:11.050Z,0
2022-11-07T08:59:10.653Z,0
2022-11-07T09:00:11.187Z,0
2022-11-07T09:01:10.600Z,0
2022-11-07T09:02:57.696Z,0
2022-11-07T09:03:43.717Z,4200
2022-11-07T09:04:10.379Z,4370
2022-11-07T09:05:09.987Z,4000
2022-11-07T09:06:10.606Z,0
2022-11-07T09:07:09.836Z,4000
2022-11-07T09:08:10.789Z,4300
2022-11-07T09:09:15.453Z,0
2022-11-07T09:10:10.291Z,5000
2022-11-07T09:11:10.019Z,5000
2022-11-07T09:12:10.182Z,5000
2022-11-07T09:13:10.761Z,0
2022-11-07T09:14:10.130Z,0
2022-11-07T09:15:10.999Z,0
2022-11-07T09:16:10.011Z,0
2022-11-07T09:17:10.708Z,10000
2022-11-07T09:18:10.477Z,0
2022-11-07T09:19:10.327Z,0
2022-11-07T09:20:24.194Z,0
2022-11-07T09:21:10.090Z,8000
2022-11-07T09:22:10.681Z,0
2022-11-07T09:23:10.353Z,0
2022-11-07T09:24:10.017Z,0
2022-11-07T09:25:10.892Z,0
2022-11-07T09:26:10.738Z,10000
2022-11-07T09:27:10.815Z,0
2022-11-07T09:28:10.443Z,0
2022-11-07T09:29:09.555Z,0
2022-11-07T09:30:10.292Z,0
2022-11-07T09:31:10.073Z,0
2022-11-07T09:32:30.864Z,0
2022-11-07T09:33:09.722Z,0
2022-11-07T09:34:09.800Z,10000
2022-11-07T09:35:10.805Z,10000
2022-11-07T09:36:10.563Z,0
2022-11-07T09:37:10.005Z,0
2022-11-07T09:38:10.644Z,0
2022-11-07T09:39:10.852Z,0
2022-11-07T09:40:11.058Z,16000
2022-11-07T09:41:09.786Z,15000
2022-11-07T09:42:12.399Z,10000
2022-11-07T09:43:10.462Z,0
2022-11-07T09:44:10.119Z,0
2022-11-07T09:45:10.231Z,0
2022-11-07T09:46:10.163Z,0
2022-11-07T09:47:10.185Z,0
2022-11-07T09:48:09.751Z,10000
2022-11-07T09:49:10.812Z,10000
2022-11-07T09:50:11.039Z,0
2022-11-07T09:51:09.901Z,0
2022-11-07T09:52:10.931Z,0
2022-11-07T09:53:09.839Z,8000
2022-11-07T09:54:09.830Z,0
2022-11-07T09:55:10.743Z,0
2022-11-07T09:56:10.898Z,7000
2022-11-07T09:57:13.975Z,0
2022-11-07T09:58:10.210Z,8000
2022-11-07T09:59:14.176Z,0
2022-11-07T10:00:11.214Z,0
2022-11-07T10:01:09.442Z,10000
2022-11-07T10:02:10.478Z,0
2022-11-07T10:03:11.139Z,0
2022-11-07T10:04:25.837Z,8000
2022-11-07T10:05:09.935Z,0
2022-11-07T10:06:10.985Z,0
2022-11-07T10:07:10.763Z,0
2022-11-07T10:08:10.607Z,0
2022-11-07T10:09:10.656Z,0
2022-11-07T10:10:10.418Z,0
2022-11-07T10:11:09.940Z,0
2022-11-07T10:12:11.105Z,0
2022-11-07T10:13:11.328Z,0
2022-11-07T10:15:10.890Z,0
2022-11-07T10:16:09.955Z,0
2022-11-07T10:17:10.910Z,0
2022-11-07T10:18:10.747Z,0
2022-11-07T10:19:10.571Z,0
2022-11-07T10:20:10.585Z,0
2022-11-07T10:21:36.685Z,0
2022-11-07T10:22:10.927Z,0
2022-11-07T10:23:10.539Z,0
2022-11-07T10:24:10.037Z,0
2022-11-07T10:25:11.149Z,0
2022-11-07T10:26:10.005Z,0
2022-11-07T10:27:10.641Z,0
2022-11-07T10:28:10.555Z,0
2022-11-07T10:29:10.559Z,0
2022-11-07T10:30:11.038Z,0
2022-11-07T10:31:10.703Z,10000
2022-11-07T10:32:10.619Z,0
2022-11-07T10:33:10.092Z,0
2022-11-07T10:34:10.373Z,0
2022-11-07T10:35:10.392Z,0
2022-11-07T10:36:10.157Z,0
2022-11-07T10:37:11.000Z,0
2022-11-07T10:38:10.670Z,0
2022-11-07T10:39:10.697Z,0
2022-11-07T10:40:11.981Z,0
2022-11-07T10:41:10.130Z,0
2022-11-07T10:42:10.972Z,0
2022-11-07T10:43:10.553Z,10000
2022-11-07T10:44:10.977Z,0
2022-11-07T10:45:10.942Z,0
2022-11-07T10:46:10.629Z,0
2022-11-07T10:47:10.149Z,20000
2022-11-07T10:48:10.962Z,30000
2022-11-07T10:49:10.074Z,0
2022-11-07T10:50:09.854Z,0
2022-11-07T10:51:10.567Z,0
2022-11-07T10:52:10.271Z,0
2022-11-07T10:53:10.050Z,10000
2022-11-07T10:54:10.772Z,0
2022-11-07T10:55:10.806Z,0
2022-11-07T10:56:10.926Z,0
2022-11-07T10:57:10.790Z,0
2022-11-07T10:58:10.580Z,10000
2022-11-07T10:59:10.609Z,14000
2022-11-07T11:00:11.292Z,10000
2022-11-07T11:01:09.913Z,0
2022-11-07T11:02:10.902Z,0
2022-11-07T11:03:10.815Z,10000
2022-11-07T11:04:10.507Z,10000
2022-11-07T11:05:10.632Z,0
2022-11-07T11:06:10.412Z,10000
2022-11-07T11:07:10.001Z,10000
2022-11-07T11:08:10.259Z,10000
2022-11-07T11:09:09.848Z,10000
2022-11-07T11:10:10.548Z,10000
2022-11-07T11:11:10.413Z,0
2022-11-07T11:12:10.657Z,10000
2022-11-07T11:13:10.603Z,10000
2022-11-07T11:14:10.602Z,10000
2022-11-07T11:15:15.652Z,10000
2022-11-07T11:16:10.402Z,10000
2022-11-07T11:17:10.501Z,0
2022-11-07T11:18:10.614Z,10000
2022-11-07T11:19:10.696Z,14000
2022-11-07T11:20:10.791Z,0
2022-11-07T11:21:10.686Z,10000
2022-11-07T11:22:10.793Z,10000
2022-11-07T11:23:10.711Z,10000
2022-11-07T11:24:10.249Z,10000
2022-11-07T11:25:10.471Z,10000
2022-11-07T11:26:10.569Z,10000
2022-11-07T11:27:10.251Z,10000
2022-11-07T11:28:10.095Z,10000
2022-11-07T11:29:10.627Z,10000
2022-11-07T11:30:10.872Z,10000
2022-11-07T11:31:10.727Z,10000
2022-11-07T11:32:10.882Z,12000
2022-11-07T11:33:19.327Z,10000
2022-11-07T11:34:09.904Z,9000
2022-11-07T11:35:24.049Z,0
2022-11-07T11:36:11.329Z,10000
2022-11-07T11:37:10.134Z,10000
2022-11-07T11:38:10.151Z,10000
2022-11-07T11:39:10.466Z,10000
2022-11-07T11:40:10.844Z,10000
2022-11-07T11:41:11.442Z,10000
2022-11-07T11:42:10.832Z,9200
2022-11-07T11:43:24.600Z,8000
2022-11-07T11:44:10.569Z,8000
2022-11-07T11:45:10.148Z,8000
2022-11-07T11:46:09.913Z,8000
2022-11-07T11:47:10.824Z,8000
2022-11-07T11:48:10.919Z,8000
2022-11-07T11:49:11.007Z,8000
2022-11-07T11:50:11.224Z,8200
2022-11-07T11:51:11.136Z,8000
2022-11-07T11:52:10.120Z,0
2022-11-07T11:53:09.922Z,0
2022-11-07T11:54:10.535Z,8600
2022-11-07T11:55:10.091Z,8000
2022-11-07T11:56:09.898Z,9000
2022-11-07T11:57:10.422Z,9000
2022-11-07T11:58:10.231Z,9000
2022-11-07T11:59:09.968Z,9000
2022-11-07T12:00:11.175Z,9100
2022-11-07T12:01:32.403Z,9000
2022-11-07T12:02:10.096Z,8000
2022-11-07T12:03:10.961Z,9000
2022-11-07T12:04:10.778Z,9300
2022-11-07T12:05:32.884Z,9000
2022-11-07T12:06:10.593Z,9100
2022-11-07T12:07:10.595Z,9200
2022-11-07T12:08:10.205Z,9000
2022-11-07T12:09:15.447Z,9000
2022-11-07T12:10:10.270Z,9000
2022-11-07T12:11:10.154Z,10000
2022-11-07T12:12:10.429Z,10000
2022-11-07T12:13:10.119Z,10000
2022-11-07T12:14:10.577Z,10000
2022-11-07T12:15:10.423Z,9000
2022-11-07T12:16:10.166Z,9600
2022-11-07T12:17:10.901Z,9000
2022-11-07T12:18:11.107Z,9330
2022-11-07T12:19:09.916Z,9100
2022-11-07T12:20:10.994Z,9010
2022-11-07T12:21:10.354Z,9030
2022-11-07T12:22:09.827Z,9020
2022-11-07T12:23:10.883Z,8950
2022-11-07T12:24:10.705Z,8912
2022-11-07T12:25:10.654Z,8912
2022-11-07T12:26:10.910Z,8890
2022-11-07T12:28:10.537Z,8820
2022-11-07T12:29:09.894Z,8770
2022-11-07T12:30:10.802Z,8780
2022-11-07T12:31:10.560Z,8840
2022-11-07T12:32:10.684Z,8900
2022-11-07T12:33:10.651Z,9000
2022-11-07T12:34:10.909Z,9000
2022-11-07T12:35:11.072Z,9000
2022-11-07T12:36:09.992Z,9900
2022-11-07T12:37:10.704Z,10070
2022-11-07T12:38:10.596Z,10039
2022-11-07T12:39:10.130Z,10060
2022-11-07T12:40:10.953Z,10120
2022-11-07T12:41:10.791Z,9000
2022-11-07T12:42:10.633Z,9500
2022-11-07T12:43:10.053Z,9200
2022-11-07T12:44:10.017Z,9000
2022-11-07T12:45:10.720Z,8000
2022-11-07T12:46:11.010Z,8200
2022-11-07T12:47:10.683Z,8000
2022-11-07T12:48:13.487Z,8020
2022-11-07T12:49:10.300Z,7900
2022-11-07T12:50:10.162Z,7700
2022-11-07T12:51:10.932Z,7700
2022-11-07T12:52:10.743Z,7700
2022-11-07T12:53:10.593Z,7700
2022-11-07T12:54:13.871Z,7700
2022-11-07T12:55:10.243Z,7600
2022-11-07T12:56:10.255Z,7600
2022-11-07T12:57:09.780Z,7400
2022-11-07T12:58:10.561Z,7300
2022-11-07T12:59:09.886Z,7490
2022-11-07T13:00:11.174Z,7600
2022-11-07T13:01:10.838Z,7800
2022-11-07T13:02:11.094Z,7600
2022-11-07T13:03:10.195Z,7100
2022-11-07T13:04:10.904Z,7000
2022-11-07T13:05:10.577Z,7400
2022-11-07T13:06:10.479Z,7400
2022-11-07T13:07:10.460Z,7400
2022-11-07T13:08:10.246Z,7410
2022-11-07T13:09:11.105Z,7432
2022-11-07T13:10:10.697Z,7400
2022-11-07T13:11:10.477Z,7600
2022-11-07T13:12:10.068Z,7800
2022-11-07T13:13:10.578Z,7600
2022-11-07T13:14:09.821Z,7400
2022-11-07T13:15:11.062Z,7300
2022-11-07T13:16:15.608Z,7100
2022-11-07T13:17:10.916Z,7020
2022-11-07T13:18:11.083Z,7050
2022-11-07T13:19:10.809Z,7050
2022-11-07T13:20:10.767Z,6970
2022-11-07T13:21:10.663Z,6949
2022-11-07T13:22:10.485Z,6930
2022-11-07T13:23:10.076Z,6907
2022-11-07T13:24:10.403Z,6910
2022-11-07T13:25:15.134Z,6910
2022-11-07T13:26:40.189Z,6960
2022-11-07T13:27:10.233Z,7020
2022-11-07T13:28:09.649Z,7110
2022-11-07T13:29:10.593Z,7151
2022-11-07T13:30:12.112Z,7161.
2022-11-07T13:31:09.896Z,7180
2022-11-07T13:32:10.569Z,7200
2022-11-07T13:33:10.180Z,7100
2022-11-07T13:34:10.481Z,6900
2022-11-07T13:35:10.173Z,6700
2022-11-07T13:36:10.711Z,6500
2022-11-07T13:37:10.398Z,6300
2022-11-07T13:38:09.932Z,6310
2022-11-07T13:39:10.494Z,6420
2022-11-07T13:40:09.957Z,6400
2022-11-07T13:41:10.821Z,6200
2022-11-07T13:42:10.677Z,6100